KDLH/DLH METAR and TAF weather

Enter ICAO airport designator
Station Type Date Time Source
KDLH METAR 2018/07/20 13:55 UTC NOAA

KDLH 201355Z 00000KT 10SM FEW090 BKN110 19/17 A2984 RMK AO2 RAE12B33E42 SLP102 P0000 T01890167


Station Type Date Time Source
KDLH Decoded METAR 2018/07/20 13:55 UTC NOAA

Duluth, Duluth International Airport, MN, United States (KDLH) 46-50-34N 092-13-34W 435M
Jul 20, 2018 - 09:55 AM EDT / 2018.07.20 1355 UTC
Wind: Calm:0
Visibility: 10 mile(s):0
Sky conditions: mostly cloudy
Precipitation last hour: A trace
Temperature: 66.0 F (18.9 C)
Dew Point: 62.1 F (16.7 C)
Relative Humidity: 87%
Pressure (altimeter): 29.84 in. Hg (1010 hPa)
ob: KDLH 201355Z 00000KT 10SM FEW090 BKN110 19/17 A2984 RMK AO2 RAE12B33E42 SLP102 P0000 T01890167
cycle: 14

Station Type Date Time Source
KDLH TAF 2018/07/20 12:42 UTC NOAA

TAF KDLH 201139Z 2012/2112 36006KT P6SM VCSH FEW060 SCT110
FM201900 06007KT P6SM VCSH SCT030 OVC100
FM210400 VRB04KT P6SM BKN025
FM210800 VRB04KT P6SM BKN010
FM211100 36006KT P6SM BKN040


Example: see airport list